6798780 - Elkhorn River near Tilden

Latitude:
42.05593º N
Longitude:
97.79539º W
Type:
Stream
River Basin:
Elkhorn
Source:
NeDNR

Info! The graphs are now plotted with new date ranges.
Warning! If you see this please check date range (or) the data is not available.

 to 


—— Provisional Data Subject to Revision ——

Instantaneous Discharge

6798780 - Elkhorn River near Tilden
- Ice Possible      - Equipment Malfunction
- Seasonal      -Rating in Development
- Measured



Instantaneous Stage

6798780 - Elkhorn River near Tilden
- Ice Possible      - Equipment Malfunction
- Seasonal      -Rating in Development
- Measured



 to 


—— Provisional Data Subject to Revision ——

Daily Discharge

6798780 - Elkhorn River near Tilden
- Approved      - Provisional


Export
Date Time Discharge (cfs) Stage (feet) Shift (feet)
09/12/2019 15:15 4,020 7.61 0.63
08/29/2019 15:30 2,760 6.82 0.80
08/15/2019 16:30 1,890 6.70 0.38
07/22/2019 14:40 869 5.52 0.14
07/10/2019 16:36 1,180 6.04 -0.23
05/30/2019 17:45 8,100 8.55 0.04
04/16/2019 16:00 4,380 7.06 0.14
03/18/2019 15:46 14,700 10.94 -0.11
02/12/2019 15:05 346 7.25 -1.87
01/10/2019 15:00 1,070 6.55 -0.17
12/17/2018 9:05 875 6.30 -0.12
11/06/2018 13:00 653 6.23 -0.34
10/10/2018 15:15 941 6.57 -0.32
09/11/2018 12:10 455 5.72 -0.14
08/21/2018 14:00 704 6.10 -0.14
07/10/2018 11:30 2,010 7.52 -0.36
06/06/2018 14:47 964 6.43 -0.16
05/03/2018 12:19 1,500 6.78 0.00
03/29/2018 14:30 1,340 6.60 0.53
03/15/2018 14:08 1,420 6.39 0.82
02/27/2018 12:30 430 6.66 -0.74
01/29/2018 13:54 354 6.60 -0.81
01/04/2018 12:15 276 5.97 -0.33
12/01/2017 11:30 444 5.41 0.53
10/10/2017 14:54 6,180 9.01 0.50
09/13/2017 15:27 256 5.22 0.38
08/18/2017 15:43 2,940 7.72 0.46
07/19/2017 14:30 161 4.91 0.46
06/13/2017 14:16 337 5.50 0.26
05/23/2017 13:53 5,190 8.54 0.59
05/03/2017 16:45 2,810 7.42 0.69
04/21/2017 16:00 925 6.32 0.37
03/09/2017 11:29 627 5.92 0.32
02/22/2017 12:15 711 6.06 0.32
02/13/2017 9:40 864 5.91 0.70
12/21/2016 12:15 199 5.81 -0.33
11/28/2016 10:30 450 5.26 0.69
10/18/2016 14:00 242 5.01 0.56
09/12/2016 15:17 209 4.88 0.62
08/29/2016 12:55 165 4.78 0.60
06/28/2016 12:45 395 5.23 0.63
06/02/2016 9:54 1,740 6.96 0.50
05/03/2016 20:00 7,830 9.62 0.47
04/25/2016 18:00 1,650 6.92 0.47
04/05/2016 14:05 783 6.46 0.03
03/18/2016 17:45 479 5.64 0.37
02/18/2016 14:30 1,420 6.87 0.34
02/01/2016 14:30 611 7.08 -0.86
12/10/2015 15:00 527 6.05 0.04
11/23/2015 14:00 560 6.20 -0.06
10/29/2015 18:39 240 5.60 -0.03
09/28/2015 16:50 356 5.63 0.16
08/28/2015 12:30 3,380 8.04 0.34
08/26/2015 17:30 154 5.36 -0.01
07/29/2015 11:45 275 5.54 0.10
06/24/2015 16:38 473 6.20 -0.20
05/28/2015 15:30 377 5.86 -0.03
04/10/2015 17:30 361 5.88 -0.08
03/16/2015 11:30 365 5.84 -0.03
01/27/2015 15:15 577 6.18 -0.02
12/09/2014 11:45 324 5.96 -0.23
11/06/2014 15:30 222 5.51 0.02
09/26/2014 15:30 223 5.56 -0.03
09/05/2014 16:45 285 5.60 0.06
08/11/2014 17:00 520 5.92 0.15
06/13/2014 14:45 684 6.34 0.00
05/23/2014 14:00 192 5.45 0.01
05/06/2014 19:15 281 5.54 0.11
03/13/2014 16:00 437 5.82 0.11
02/13/2014 14:45 179 6.30 -0.88
01/22/2014 12:15 244 6.12 -0.54
11/12/2013 15:00 298 5.72 -0.03
10/03/2013 11:40 1,240 7.12 -0.95
09/17/2013 16:30 80.1 5.18 -1.17
08/21/2013 14:50 167 5.39 -1.03
07/16/2013 12:30 124 5.22 -1.02
06/10/2013 12:30 486 5.93 -0.81
04/23/2013 16:50 536 6.08 -0.87
04/12/2013 18:00 444 5.90 -0.86
03/13/2013 15:15 310 5.61 -0.85
01/16/2013 14:00 146 5.94 -1.65
12/17/2012 15:30 192 5.45 -1.01
11/21/2012 10:20 160 5.29 -0.95
11/06/2012 11:45 164 5.15 -0.80
10/02/2012 15:00 84.7 4.92 -0.89
09/05/2012 15:00 42.9 4.63 -0.86
07/24/2012 13:00 60.2 4.65 -0.76
07/10/2012 17:00 114 4.99 -0.83
06/11/2012 16:30 258 5.38 -0.75
04/20/2012 17:35 1,330 6.70 -0.44
03/13/2012 17:45 614 5.82 -0.48
03/02/2012 14:45 583 5.59 -0.30
02/02/2012 13:25 422 5.46 -0.46
01/04/2012 12:10 274 5.26 -0.59
11/16/2011 14:40 318 5.13 -0.36
10/31/2011 13:00 340 5.07 -0.24
09/27/2011 10:55 212 4.73 -0.23
09/06/2011 16:35 295 4.91 -0.19
07/12/2011 14:10 2,210 6.78 0.28
06/27/2011 17:15 6,000 8.44 0.83
05/23/2011 15:45 1,130 6.39 -0.35
05/05/2011 16:45 953 5.68 0.15
04/11/2011 17:10 784 5.69 -0.09
03/01/2011 15:45 1,000 5.63 0.26
01/27/2011 13:25 183 6.20 -1.79
01/05/2011 13:30 275 5.60 -0.93
12/02/2010 12:22 262 5.06 -0.42
10/19/2010 13:15 262 4.80 -0.16
09/13/2010 17:20 254 4.60 0.02
08/17/2010 16:30 448 4.99 0.06
07/16/2010 16:40 1,010 5.92 -0.02
06/29/2010 13:44 2,090 6.60 0.36
06/14/2010 12:25 18,400 13.54 -0.27
05/26/2010 19:00 366 5.50 0.23
04/27/2010 18:30 1,710 6.60 0.42
03/10/2010 14:45 5,960 9.22 -0.65
01/28/2010 15:00 402 7.03 -1.24
12/30/2009 15:15 248 6.60 -1.11
12/03/2009 15:15 374 5.94 -0.19
10/19/2009 15:35 302 5.76 -0.15
09/14/2009 16:30 227 5.45 -0.02
08/18/2009 16:30 544 6.02 0.02
08/04/2009 13:30 184 5.34 -0.03
07/20/2009 16:20 216 5.39 0.01
06/15/2009 16:50 711 6.25 -0.02
06/01/2009 16:00 379 5.66 0.09
04/22/2009 11:45 777 6.16 0.14
03/06/2009 15:00 998 6.22 0.29
02/10/2009 14:15 1,520 6.67 0.24
12/31/2008 13:45 320 6.23 -0.59
11/18/2008 15:45 789 6.05 0.26
10/21/2008 17:33 314 5.36 0.27
09/17/2008 16:00 188 5.05 0.27
08/26/2008 16:20 174 4.95 0.33
07/02/2008 15:00 484 5.36 0.58
05/31/2008 20:40 7,560 9.74 -0.80
04/28/2008 16:45 954 6.62 -0.15
04/02/2008 18:30 690 6.16 0.05
02/19/2008 16:00 326 5.99 -0.33
01/15/2008 14:15 390 5.91 -0.14
12/28/2007 14:00 340 5.84 -0.16
11/14/2007 14:30 341 5.65 0.04
10/19/2007 12:35 3,250 7.66 0.10
09/25/2007 17:00 208 5.30 0.08
08/29/2007 16:45 367 5.75 -0.02
07/25/2007 13:30 162 5.36 -0.11
07/06/2007 17:00 290 5.63 -0.05
06/15/2007 14:32 3,210 7.74 0.00
05/09/2007 12:29 3,330 7.83
04/26/2007 16:00 7,370 8.85
04/18/2007 15:50 554 5.94
Export



Download Rating Curve
  
2.47     0.01
2.48     0.01
2.49     0.01
2.50     0.01
2.51     0.01
2.52     0.01
2.53     0.01
2.54     0.01
2.55     0.01
2.56     0.01
2.57     0.01
2.58     0.01
2.59     0.01
2.60     0.01
2.61     0.01
2.62     0.01
2.63     0.01
2.64     0.02
2.65     0.02
2.66     0.02
2.67     0.02
2.68     0.02
2.69     0.02
2.70     0.02
2.71     0.02
2.72     0.02
2.73     0.03
2.74     0.03
2.75     0.03
2.76     0.03
2.77     0.03
2.78     0.04
2.79     0.04
2.80     0.04
2.81     0.04
2.82     0.04
2.83     0.05
2.84     0.05
2.85     0.05
2.86     0.06
2.87     0.06
2.88     0.06
2.89     0.07
2.90     0.07
2.91     0.07
2.92     0.08
2.93     0.08
2.94     0.09
2.95     0.09
2.96     0.10
2.97     0.10
2.98     0.11
2.99     0.12
3.00     0.12
3.01     0.13
3.02     0.14
3.03     0.15
3.04     0.15
3.05     0.16
3.06     0.17
3.07     0.18
3.08     0.19
3.09     0.20
3.10     0.21
3.11     0.22
3.12     0.24
3.13     0.25
3.14     0.26
3.15     0.28
3.16     0.29
3.17     0.31
3.18     0.32
3.19     0.34
3.20     0.36
3.21     0.38
3.22     0.40
3.23     0.42
3.24     0.44
3.25     0.46
3.26     0.48
3.27     0.51
3.28     0.54
3.29     0.56
3.30     0.59
3.31     0.62
3.32     0.65
3.33     0.69
3.34     0.72
3.35     0.76
3.36     0.80
3.37     0.84
3.38     0.88
3.39     0.92
3.40     0.97
3.41     1.02
3.42     1.07
3.43     1.12
3.44     1.17
3.45     1.23
3.46     1.29
Download Rating Curve